createdAt,value
2019-04-07T00:01:32.211Z,9.17
2019-04-07T00:04:21.498Z,9.16
2019-04-07T00:07:09.533Z,9.01
2019-04-07T00:09:57.987Z,8.63
2019-04-07T00:12:46.502Z,8.51
2019-04-07T00:15:35.231Z,8.41
2019-04-07T00:18:23.023Z,8.47
2019-04-07T00:21:12.486Z,8.61
2019-04-07T00:24:02.409Z,8.57
2019-04-07T00:26:51.287Z,8.65
2019-04-07T00:29:39.590Z,8.70
2019-04-07T00:32:28.446Z,8.70
2019-04-07T00:35:26.486Z,8.91
2019-04-07T00:38:06.283Z,8.96
2019-04-07T00:40:55.459Z,8.99
2019-04-07T00:43:44.537Z,8.92
2019-04-07T00:46:33.237Z,8.66
2019-04-07T00:49:21.735Z,8.63
2019-04-07T00:52:10.823Z,8.73
2019-04-07T00:54:58.921Z,8.82
2019-04-07T00:57:47.117Z,9.02
2019-04-07T01:00:36.616Z,9.06
2019-04-07T01:03:26.043Z,9.17
2019-04-07T01:06:14.611Z,9.28
2019-04-07T01:09:04.510Z,9.03
2019-04-07T01:11:52.812Z,8.87
2019-04-07T01:14:41.853Z,8.73
2019-04-07T01:17:30.406Z,8.85
2019-04-07T01:20:19.480Z,8.96
2019-04-07T01:23:08.131Z,9.06
2019-04-07T01:25:55.970Z,9.06
2019-04-07T01:28:44.926Z,9.06
2019-04-07T01:31:34.140Z,9.24
2019-04-07T01:34:23.971Z,9.21
2019-04-07T01:37:13.611Z,9.08
2019-04-07T01:40:03.041Z,9.00
2019-04-07T01:43:09.362Z,9.03
2019-04-07T01:46:28.671Z,9.08
2019-04-07T01:49:39.090Z,9.22
2019-04-07T01:52:36.456Z,9.18
2019-04-07T01:55:52.193Z,8.98
2019-04-07T01:59:06.698Z,8.89
2019-04-07T02:02:12.596Z,8.89
2019-04-07T02:05:32.279Z,8.81
2019-04-07T02:08:38.625Z,8.69
2019-04-07T02:11:33.920Z,8.81
2019-04-07T02:14:44.452Z,8.99
2019-04-07T02:18:10.134Z,8.88
2019-04-07T02:21:24.891Z,8.83
2019-04-07T02:24:28.414Z,8.92
2019-04-07T02:27:31.784Z,8.90
2019-04-07T02:30:37.556Z,8.77
2019-04-07T02:33:34.971Z,8.75
2019-04-07T02:36:43.097Z,8.83
2019-04-07T02:39:53.494Z,8.72
2019-04-07T02:43:09.119Z,8.72
2019-04-07T02:46:25.509Z,8.58
2019-04-07T02:49:45.642Z,8.54
2019-04-07T02:52:59.415Z,8.69
2019-04-07T02:56:07.790Z,8.56
2019-04-07T02:59:21.366Z,8.57
2019-04-07T03:02:25.040Z,8.32
2019-04-07T03:05:33.299Z,8.18
2019-04-07T03:08:47.486Z,7.94
2019-04-07T03:12:00.378Z,7.71
2019-04-07T03:15:00.588Z,7.82
2019-04-07T03:18:06.971Z,7.71
2019-04-07T03:21:15.877Z,7.55
2019-04-07T03:24:34.960Z,7.45
2019-04-07T03:27:48.715Z,7.16
2019-04-07T03:30:45.444Z,7.13
2019-04-07T03:33:51.929Z,7.00
2019-04-07T03:37:11.684Z,6.88
2019-04-07T03:39:56.928Z,7.02
2019-04-07T03:42:53.992Z,7.15
2019-04-07T03:46:00.689Z,7.40
2019-04-07T03:49:02.040Z,7.54
2019-04-07T03:52:00.055Z,7.51
2019-04-07T03:55:06.645Z,7.54
2019-04-07T03:58:14.935Z,7.47
2019-04-07T04:01:25.506Z,7.34
2019-04-07T04:04:34.272Z,7.41
2019-04-07T04:07:44.105Z,7.35
2019-04-07T04:10:51.647Z,7.20
2019-04-07T04:13:59.218Z,7.22
2019-04-07T04:16:50.769Z,7.11
2019-04-07T04:19:40.667Z,7.04
2019-04-07T04:22:29.335Z,6.99
2019-04-07T04:25:19.160Z,6.90
2019-04-07T04:28:07.876Z,6.80
2019-04-07T04:30:56.728Z,7.00
2019-04-07T04:33:45.064Z,7.03
2019-04-07T04:36:33.602Z,7.18
2019-04-07T04:39:22.787Z,7.06
2019-04-07T04:42:14.156Z,7.14
2019-04-07T04:45:02.690Z,7.25
2019-04-07T04:47:51.637Z,7.32
2019-04-07T04:50:40.576Z,7.40
2019-04-07T04:53:30.791Z,7.34
2019-04-07T04:56:19.941Z,6.94
2019-04-07T04:59:09.409Z,6.60
2019-04-07T05:01:57.809Z,6.17
2019-04-07T05:04:47.056Z,5.86
2019-04-07T05:07:48.838Z,5.86
2019-04-07T05:10:25.304Z,6.30
2019-04-07T05:13:14.049Z,6.52
2019-04-07T05:16:02.627Z,6.49
2019-04-07T05:18:50.457Z,6.62
2019-04-07T05:21:38.388Z,6.87
2019-04-07T05:24:26.929Z,7.14
2019-04-07T05:27:15.042Z,7.17
2019-04-07T05:30:03.469Z,7.56
2019-04-07T05:32:52.372Z,8.25
2019-04-07T05:35:40.972Z,8.67
2019-04-07T05:38:30.226Z,8.83
2019-04-07T05:41:18.735Z,9.28
2019-04-07T05:44:07.753Z,9.62
2019-04-07T05:46:57.053Z,9.86
2019-04-07T05:49:45.350Z,10.07
2019-04-07T05:52:38.584Z,10.07
2019-04-07T05:55:24.388Z,10.06
2019-04-07T05:58:15.519Z,9.90
2019-04-07T06:01:02.826Z,9.84
2019-04-07T06:03:52.209Z,9.82
2019-04-07T06:06:42.039Z,9.94
2019-04-07T06:09:33.533Z,9.99
2019-04-07T06:12:20.327Z,10.13
2019-04-07T06:15:09.680Z,10.17
2019-04-07T06:18:01.099Z,9.51
2019-04-07T06:20:47.758Z,9.69
2019-04-07T06:23:36.445Z,9.97
2019-04-07T06:26:26.519Z,10.32
2019-04-07T06:29:16.060Z,10.53
2019-04-07T06:32:06.194Z,10.43
2019-04-07T06:34:53.877Z,10.25
2019-04-07T06:37:42.961Z,9.98
2019-04-07T06:40:32.182Z,9.89
2019-04-07T06:43:21.130Z,9.97
2019-04-07T06:46:30.804Z,10.37
2019-04-07T06:49:37.298Z,10.17
2019-04-07T06:52:46.908Z,10.30
2019-04-07T06:56:01.323Z,10.76
2019-04-07T06:59:11.868Z,11.14
2019-04-07T07:02:13.300Z,11.40
2019-04-07T07:05:28.969Z,11.75
2019-04-07T07:08:26.901Z,11.89
2019-04-07T07:11:42.835Z,12.10
2019-04-07T07:14:47.501Z,12.24
2019-04-07T07:18:00.623Z,12.28
2019-04-07T07:21:14.509Z,12.52
2019-04-07T07:24:02.931Z,12.52
2019-04-07T07:26:50.841Z,12.83
2019-04-07T07:29:39.864Z,12.49
2019-04-07T07:32:29.148Z,12.35
2019-04-07T07:35:18.048Z,12.29
2019-04-07T07:38:06.027Z,12.61
2019-04-07T07:40:53.991Z,12.40
2019-04-07T07:43:42.429Z,12.65
2019-04-07T07:46:31.016Z,12.63
2019-04-07T07:49:19.395Z,12.98
2019-04-07T07:52:08.052Z,12.70
2019-04-07T07:54:59.796Z,12.99
2019-04-07T07:57:45.367Z,13.12
2019-04-07T08:00:37.169Z,13.74
2019-04-07T08:03:23.932Z,14.02
2019-04-07T08:06:12.565Z,14.57
2019-04-07T08:09:10.806Z,14.72
2019-04-07T08:11:55.300Z,15.19
2019-04-07T08:14:44.819Z,15.08
2019-04-07T08:17:33.948Z,14.92
2019-04-07T08:20:23.149Z,15.29
2019-04-07T08:23:12.192Z,15.57
2019-04-07T08:26:00.670Z,15.77
2019-04-07T08:28:49.396Z,15.80
2019-04-07T08:31:38.290Z,15.59
2019-04-07T08:34:30.503Z,15.29
2019-04-07T08:37:17.887Z,15.17
2019-04-07T08:40:07.685Z,15.34
2019-04-07T08:42:56.137Z,15.74
2019-04-07T08:45:44.903Z,16.37
2019-04-07T08:48:33.429Z,16.71
2019-04-07T08:51:22.383Z,17.03
2019-04-07T08:54:13.829Z,16.90
2019-04-07T08:57:00.849Z,15.88
2019-04-07T08:59:50.674Z,15.50
2019-04-07T09:02:40.004Z,15.89
2019-04-07T09:05:31.035Z,16.07
2019-04-07T09:08:17.938Z,16.22
2019-04-07T09:11:20.012Z,16.24
2019-04-07T09:14:06.466Z,16.36
2019-04-07T09:17:29.274Z,16.22
2019-04-07T09:20:44.274Z,15.38
2019-04-07T09:23:50.601Z,14.95
2019-04-07T09:26:56.295Z,15.26
2019-04-07T09:29:57.667Z,15.21
2019-04-07T09:32:58.784Z,14.47
2019-04-07T09:36:10.175Z,14.79
2019-04-07T09:39:08.378Z,14.48
2019-04-07T09:42:28.001Z,14.52
2019-04-07T09:45:41.416Z,14.79
2019-04-07T09:49:03.469Z,14.27
2019-04-07T09:52:01.018Z,14.62
2019-04-07T09:55:10.656Z,14.99
2019-04-07T09:58:20.358Z,15.08
2019-04-07T10:01:19.901Z,15.57
2019-04-07T10:04:27.471Z,15.50
2019-04-07T10:07:44.005Z,15.44
2019-04-07T10:10:41.600Z,14.92
2019-04-07T10:13:57.792Z,15.12
2019-04-07T10:17:23.315Z,15.38
2019-04-07T10:20:26.357Z,15.76
2019-04-07T10:23:32.140Z,15.71
2019-04-07T10:26:28.243Z,15.12
2019-04-07T10:29:28.043Z,15.09
2019-04-07T10:32:41.729Z,15.21
2019-04-07T10:35:58.297Z,14.74
2019-04-07T10:39:04.833Z,14.75
2019-04-07T10:42:09.823Z,14.93
2019-04-07T10:45:10.780Z,14.78
2019-04-07T10:48:17.930Z,14.90
2019-04-07T10:51:31.995Z,14.77
2019-04-07T10:54:27.031Z,14.81
2019-04-07T10:57:36.929Z,14.56
2019-04-07T11:00:52.663Z,14.18
2019-04-07T11:03:54.845Z,14.36
2019-04-07T11:07:17.455Z,14.12
2019-04-07T11:10:30.677Z,14.01
2019-04-07T11:13:27.791Z,14.24
2019-04-07T11:16:40.472Z,14.31
2019-04-07T11:19:45.987Z,14.36
2019-04-07T11:23:00.934Z,14.75
2019-04-07T11:26:13.996Z,15.06
2019-04-07T11:29:09.510Z,15.05
2019-04-07T11:32:08.759Z,15.38
2019-04-07T11:35:22.193Z,15.51
2019-04-07T11:38:35.378Z,15.62
2019-04-07T11:41:54.828Z,15.84
2019-04-07T11:45:03.111Z,16.00
2019-04-07T11:48:09.992Z,16.18
2019-04-07T11:51:09.652Z,15.87
2019-04-07T11:54:20.160Z,15.79
2019-04-07T11:57:44.768Z,15.58
2019-04-07T12:00:51.390Z,15.48
2019-04-07T12:03:49.203Z,15.64
2019-04-07T12:07:08.880Z,15.85
2019-04-07T12:10:31.885Z,15.93
2019-04-07T12:13:35.699Z,15.99
2019-04-07T12:16:41.380Z,16.30
2019-04-07T12:19:34.006Z,15.86
2019-04-07T12:22:29.667Z,15.97
2019-04-07T12:25:29.352Z,16.21
2019-04-07T12:28:34.374Z,16.30
2019-04-07T12:31:45.012Z,16.23
2019-04-07T12:34:56.631Z,16.34
2019-04-07T12:38:10.050Z,16.47
2019-04-07T12:41:18.346Z,16.47
2019-04-07T12:44:11.538Z,15.95
2019-04-07T12:47:33.216Z,16.08
2019-04-07T12:50:43.655Z,16.14
2019-04-07T12:53:50.575Z,15.99
2019-04-07T12:57:02.558Z,16.08
2019-04-07T13:00:07.344Z,16.15
2019-04-07T13:03:13.909Z,16.03
2019-04-07T13:06:00.646Z,16.01
2019-04-07T13:08:54.909Z,15.88
2019-04-07T13:11:45.735Z,16.02
2019-04-07T13:14:32.397Z,16.31
2019-04-07T13:17:22.170Z,16.01
2019-04-07T13:20:21.221Z,16.16
2019-04-07T13:23:01.545Z,15.85
2019-04-07T13:25:38.568Z,15.56
2019-04-07T13:28:30.862Z,15.60
2019-04-07T13:31:26.490Z,16.11
2019-04-07T13:34:33.774Z,16.83
2019-04-07T13:37:10.086Z,17.55
2019-04-07T13:40:01.909Z,17.87
2019-04-07T13:42:38.991Z,17.81
2019-04-07T13:45:23.297Z,17.96
2019-04-07T13:48:11.562Z,17.87
2019-04-07T13:51:13.749Z,18.08
2019-04-07T13:54:02.158Z,17.09
2019-04-07T13:56:58.142Z,16.54
2019-04-07T13:59:45.304Z,16.84
2019-04-07T14:02:31.565Z,17.69
2019-04-07T14:05:27.289Z,17.01
2019-04-07T14:08:16.964Z,15.99
2019-04-07T14:10:58.222Z,16.53
2019-04-07T14:13:51.096Z,16.37
2019-04-07T14:16:46.483Z,16.57
2019-04-07T14:19:38.638Z,16.58
2019-04-07T14:22:19.273Z,16.55
2019-04-07T14:24:56.721Z,16.72
2019-04-07T14:27:46.227Z,16.88
2019-04-07T14:30:41.233Z,16.85
2019-04-07T14:33:23.027Z,16.94
2019-04-07T14:36:25.068Z,16.78
2019-04-07T14:39:08.526Z,16.68
2019-04-07T14:41:49.804Z,16.62
2019-04-07T14:44:26.151Z,16.47
2019-04-07T14:47:15.019Z,16.31
2019-04-07T14:49:56.158Z,16.28
2019-04-07T14:52:37.200Z,16.15
2019-04-07T14:55:41.932Z,16.02
2019-04-07T14:58:19.254Z,15.97
2019-04-07T15:01:03.448Z,15.81
2019-04-07T15:03:31.753Z,15.70
2019-04-07T15:06:01.784Z,15.39
2019-04-07T15:08:53.700Z,15.36
2019-04-07T15:11:32.306Z,15.26
2019-04-07T15:14:02.805Z,15.28
2019-04-07T15:16:33.976Z,15.13
2019-04-07T15:19:05.558Z,15.02
2019-04-07T15:21:36.307Z,14.98
2019-04-07T15:24:08.473Z,14.97
2019-04-07T15:26:38.953Z,14.93
2019-04-07T15:29:10.799Z,14.83
2019-04-07T15:31:41.837Z,14.73
2019-04-07T15:34:14.135Z,14.74
2019-04-07T15:36:43.968Z,14.69
2019-04-07T15:39:14.010Z,14.63
2019-04-07T15:41:44.487Z,14.47
2019-04-07T15:44:16.501Z,14.36
2019-04-07T15:46:52.388Z,14.24
2019-04-07T15:49:18.455Z,14.22
2019-04-07T15:51:49.795Z,14.21
2019-04-07T15:54:23.336Z,14.19
2019-04-07T15:56:52.838Z,14.12
2019-04-07T15:59:23.210Z,14.16
2019-04-07T16:01:57.330Z,14.17
2019-04-07T16:04:29.607Z,13.96
2019-04-07T16:07:00.243Z,13.94
2019-04-07T16:09:39.693Z,13.78
2019-04-07T16:12:03.708Z,13.74
2019-04-07T16:14:34.069Z,13.74
2019-04-07T16:17:06.340Z,13.69
2019-04-07T16:19:42.223Z,13.63
2019-04-07T16:22:11.259Z,13.52
2019-04-07T16:24:39.630Z,13.40
2019-04-07T16:27:10.879Z,13.39
2019-04-07T16:29:41.177Z,13.28
2019-04-07T16:32:12.456Z,13.17
2019-04-07T16:34:43.643Z,13.19
2019-04-07T16:37:14.519Z,13.16
2019-04-07T16:39:44.654Z,13.16
2019-04-07T16:42:15.442Z,13.11
2019-04-07T16:44:45.980Z,13.12
2019-04-07T16:47:22.495Z,13.07
2019-04-07T16:49:49.012Z,13.07
2019-04-07T16:52:19.050Z,12.96
2019-04-07T16:54:49.039Z,12.94
2019-04-07T16:57:18.977Z,12.87
2019-04-07T16:59:49.130Z,12.91
2019-04-07T17:02:19.472Z,12.85
2019-04-07T17:04:50.457Z,12.86
2019-04-07T17:07:22.178Z,12.81
2019-04-07T17:09:54.971Z,12.75
2019-04-07T17:12:24.241Z,12.84
2019-04-07T17:14:54.296Z,12.74
2019-04-07T17:17:27.060Z,12.69
2019-04-07T17:19:59.449Z,12.70
2019-04-07T17:22:29.092Z,12.60
2019-04-07T17:25:02.050Z,12.69
2019-04-07T17:27:31.456Z,12.65
2019-04-07T17:30:03.343Z,12.62
2019-04-07T17:32:35.685Z,12.55
2019-04-07T17:35:07.283Z,12.54
2019-04-07T17:37:37.934Z,12.53
2019-04-07T17:40:14.760Z,12.55
2019-04-07T17:42:48.162Z,12.46
2019-04-07T17:45:33.353Z,12.47
2019-04-07T17:48:21.340Z,12.46
2019-04-07T17:51:10.070Z,12.35
2019-04-07T17:54:12.218Z,12.38
2019-04-07T17:56:55.006Z,12.38
2019-04-07T18:00:00.253Z,12.26
2019-04-07T18:02:47.607Z,12.32
2019-04-07T18:05:39.303Z,12.30
2019-04-07T18:08:19.903Z,12.49
2019-04-07T18:11:09.914Z,12.35
2019-04-07T18:14:07.837Z,12.34
2019-04-07T18:16:55.563Z,12.59
2019-04-07T18:19:35.177Z,13.01
2019-04-07T18:22:28.671Z,12.66
2019-04-07T18:25:14.914Z,12.46
2019-04-07T18:27:54.582Z,12.40
2019-04-07T18:30:53.832Z,12.26
2019-04-07T18:33:50.749Z,12.20
2019-04-07T18:36:45.948Z,12.12
2019-04-07T18:39:57.446Z,12.08
2019-04-07T18:42:44.366Z,12.12
2019-04-07T18:45:36.507Z,12.06
2019-04-07T18:48:35.982Z,12.10
2019-04-07T18:51:25.184Z,11.98
2019-04-07T18:54:26.910Z,12.05
2019-04-07T18:57:15.300Z,12.14
2019-04-07T19:00:05.443Z,12.55
2019-04-07T19:02:54.701Z,12.73
2019-04-07T19:05:42.618Z,12.82
2019-04-07T19:08:34.938Z,12.55
2019-04-07T19:11:26.562Z,12.47
2019-04-07T19:14:30.525Z,12.35
2019-04-07T19:17:05.726Z,12.27
2019-04-07T19:19:53.882Z,12.12
2019-04-07T19:22:46.533Z,12.13
2019-04-07T19:25:33.661Z,12.00
2019-04-07T19:28:26.153Z,11.99
2019-04-07T19:31:27.632Z,12.05
2019-04-07T19:34:17.254Z,11.99
2019-04-07T19:37:20.171Z,11.96
2019-04-07T19:40:04.336Z,11.94
2019-04-07T19:42:50.555Z,11.92
2019-04-07T19:45:48.965Z,11.87
2019-04-07T19:48:42.752Z,11.78
2019-04-07T19:51:31.901Z,11.83
2019-04-07T19:54:19.002Z,11.78
2019-04-07T19:57:04.754Z,11.76
2019-04-07T20:00:26.117Z,11.72
2019-04-07T20:03:30.663Z,11.66
2019-04-07T20:06:47.269Z,11.62
2019-04-07T20:09:48.029Z,11.62
2019-04-07T20:12:45.163Z,11.72
2019-04-07T20:15:47.791Z,11.68
2019-04-07T20:19:04.473Z,11.57
2019-04-07T20:22:16.371Z,11.54
2019-04-07T20:25:31.624Z,11.59
2019-04-07T20:28:35.856Z,11.64
2019-04-07T20:31:42.816Z,11.60
2019-04-07T20:34:50.500Z,11.56
2019-04-07T20:38:12.639Z,11.52
2019-04-07T20:41:16.112Z,11.52
2019-04-07T20:44:32.552Z,11.53
2019-04-07T20:47:36.150Z,11.54
2019-04-07T20:50:43.565Z,11.47
2019-04-07T20:53:47.572Z,11.43
2019-04-07T20:57:09.483Z,11.45
2019-04-07T21:00:08.144Z,11.41
2019-04-07T21:03:21.448Z,11.53
2019-04-07T21:06:27.486Z,11.42
2019-04-07T21:09:33.383Z,11.37
2019-04-07T21:12:48.312Z,11.35
2019-04-07T21:15:57.374Z,11.33
2019-04-07T21:18:56.395Z,11.30
2019-04-07T21:22:06.807Z,11.22
2019-04-07T21:25:23.874Z,11.19
2019-04-07T21:28:18.277Z,11.18
2019-04-07T21:31:22.894Z,11.13
2019-04-07T21:34:20.753Z,11.15
2019-04-07T21:37:23.757Z,11.09
2019-04-07T21:40:22.907Z,11.14
2019-04-07T21:43:29.940Z,11.05
2019-04-07T21:46:37.032Z,11.17
2019-04-07T21:49:51.482Z,11.13
2019-04-07T21:53:01.338Z,11.13
2019-04-07T21:56:03.899Z,11.09
2019-04-07T21:59:08.603Z,11.04
2019-04-07T22:02:17.471Z,11.08
2019-04-07T22:05:37.063Z,11.13
2019-04-07T22:08:30.525Z,11.09
2019-04-07T22:11:22.599Z,11.11
2019-04-07T22:14:08.866Z,11.13
2019-04-07T22:16:57.339Z,11.23
2019-04-07T22:19:47.061Z,11.16
2019-04-07T22:22:35.283Z,11.20
2019-04-07T22:25:30.851Z,11.05
2019-04-07T22:28:19.319Z,11.06
2019-04-07T22:31:12.859Z,11.09
2019-04-07T22:34:01.023Z,11.16
2019-04-07T22:36:48.220Z,11.07
2019-04-07T22:39:37.549Z,11.00
2019-04-07T22:42:26.090Z,10.98
2019-04-07T22:45:14.933Z,10.91
2019-04-07T22:48:03.511Z,10.85
2019-04-07T22:50:51.879Z,10.87
2019-04-07T22:53:40.177Z,10.98
2019-04-07T22:56:29.855Z,11.11
2019-04-07T22:59:20.464Z,11.01
2019-04-07T23:02:08.782Z,11.03
2019-04-07T23:04:57.340Z,11.08
2019-04-07T23:07:45.904Z,10.94
2019-04-07T23:10:34.468Z,10.91
2019-04-07T23:13:23.773Z,11.05
2019-04-07T23:16:15.120Z,11.01
2019-04-07T23:19:01.466Z,10.98
2019-04-07T23:21:51.266Z,11.00
2019-04-07T23:24:39.696Z,11.07
2019-04-07T23:27:29.726Z,10.96
2019-04-07T23:30:19.398Z,10.99
2019-04-07T23:33:08.344Z,10.91
2019-04-07T23:35:56.347Z,10.94
2019-04-07T23:38:43.993Z,10.92
2019-04-07T23:41:32.625Z,10.97
2019-04-07T23:44:21.424Z,11.00
2019-04-07T23:47:09.768Z,11.02
2019-04-07T23:49:58.682Z,11.04
2019-04-07T23:52:47.554Z,11.04
2019-04-07T23:55:36.280Z,10.92
2019-04-07T23:58:24.109Z,10.96
